sensor_id;sensor_type;location;lat;lon;timestamp;P1;durP1;ratioP1;P2;durP2;ratioP2
53519;SDS011;39397;53.204;5.778;2024-03-07T00:01:23;47.10;;;28.08;;
53519;SDS011;39397;53.204;5.778;2024-03-07T00:03:52;44.40;;;28.45;;
53519;SDS011;39397;53.204;5.778;2024-03-07T00:06:18;45.38;;;27.45;;
53519;SDS011;39397;53.204;5.778;2024-03-07T00:08:45;45.03;;;27.60;;
53519;SDS011;39397;53.204;5.778;2024-03-07T00:11:13;44.40;;;28.30;;
53519;SDS011;39397;53.204;5.778;2024-03-07T00:13:40;46.30;;;29.55;;
53519;SDS011;39397;53.204;5.778;2024-03-07T00:16:05;46.60;;;28.77;;
53519;SDS011;39397;53.204;5.778;2024-03-07T00:18:31;44.30;;;28.02;;
53519;SDS011;39397;53.204;5.778;2024-03-07T00:20:57;46.65;;;28.17;;
53519;SDS011;39397;53.204;5.778;2024-03-07T00:23:34;45.78;;;29.48;;
53519;SDS011;39397;53.204;5.778;2024-03-07T00:26:00;42.72;;;27.63;;
53519;SDS011;39397;53.204;5.778;2024-03-07T00:28:26;43.13;;;26.95;;
53519;SDS011;39397;53.204;5.778;2024-03-07T00:30:57;43.13;;;27.63;;
53519;SDS011;39397;53.204;5.778;2024-03-07T00:33:23;42.25;;;27.17;;
53519;SDS011;39397;53.204;5.778;2024-03-07T00:35:50;42.40;;;25.75;;
53519;SDS011;39397;53.204;5.778;2024-03-07T00:38:24;40.10;;;26.27;;
53519;SDS011;39397;53.204;5.778;2024-03-07T00:40:50;46.33;;;27.83;;
53519;SDS011;39397;53.204;5.778;2024-03-07T00:43:15;43.67;;;27.25;;
53519;SDS011;39397;53.204;5.778;2024-03-07T00:45:41;41.90;;;26.17;;
53519;SDS011;39397;53.204;5.778;2024-03-07T00:48:14;42.13;;;27.25;;
53519;SDS011;39397;53.204;5.778;2024-03-07T00:50:41;43.47;;;29.02;;
53519;SDS011;39397;53.204;5.778;2024-03-07T00:53:09;47.72;;;27.05;;
53519;SDS011;39397;53.204;5.778;2024-03-07T00:55:35;41.90;;;28.27;;
53519;SDS011;39397;53.204;5.778;2024-03-07T00:58:01;43.80;;;27.77;;
53519;SDS011;39397;53.204;5.778;2024-03-07T01:00:28;40.15;;;27.17;;
53519;SDS011;39397;53.204;5.778;2024-03-07T01:02:54;42.90;;;27.27;;
53519;SDS011;39397;53.204;5.778;2024-03-07T01:05:20;39.05;;;26.17;;
53519;SDS011;39397;53.204;5.778;2024-03-07T01:07:45;43.03;;;27.27;;
53519;SDS011;39397;53.204;5.778;2024-03-07T01:10:15;40.75;;;27.38;;
53519;SDS011;39397;53.204;5.778;2024-03-07T01:12:41;43.08;;;25.40;;
53519;SDS011;39397;53.204;5.778;2024-03-07T01:15:08;39.53;;;25.23;;
53519;SDS011;39397;53.204;5.778;2024-03-07T01:17:36;39.45;;;26.48;;
53519;SDS011;39397;53.204;5.778;2024-03-07T01:20:02;39.90;;;25.20;;
53519;SDS011;39397;53.204;5.778;2024-03-07T01:22:29;39.15;;;26.13;;
53519;SDS011;39397;53.204;5.778;2024-03-07T01:24:55;40.65;;;24.95;;
53519;SDS011;39397;53.204;5.778;2024-03-07T01:27:21;40.08;;;25.83;;
53519;SDS011;39397;53.204;5.778;2024-03-07T01:29:49;38.53;;;24.77;;
53519;SDS011;39397;53.204;5.778;2024-03-07T01:32:17;37.88;;;25.17;;
53519;SDS011;39397;53.204;5.778;2024-03-07T01:34:43;36.30;;;24.98;;
53519;SDS011;39397;53.204;5.778;2024-03-07T01:37:12;34.50;;;22.92;;
53519;SDS011;39397;53.204;5.778;2024-03-07T01:39:38;40.10;;;24.13;;
53519;SDS011;39397;53.204;5.778;2024-03-07T01:42:04;36.83;;;23.75;;
53519;SDS011;39397;53.204;5.778;2024-03-07T01:44:30;39.97;;;23.90;;
53519;SDS011;39397;53.204;5.778;2024-03-07T01:46:58;31.20;;;22.67;;
53519;SDS011;39397;53.204;5.778;2024-03-07T01:49:28;35.15;;;22.50;;
53519;SDS011;39397;53.204;5.778;2024-03-07T01:51:57;35.60;;;22.75;;
53519;SDS011;39397;53.204;5.778;2024-03-07T01:54:25;35.30;;;22.52;;
53519;SDS011;39397;53.204;5.778;2024-03-07T01:56:55;33.50;;;22.75;;
53519;SDS011;39397;53.204;5.778;2024-03-07T01:59:22;33.78;;;22.75;;
53519;SDS011;39397;53.204;5.778;2024-03-07T02:01:49;32.45;;;22.45;;
53519;SDS011;39397;53.204;5.778;2024-03-07T02:04:15;33.88;;;22.63;;
53519;SDS011;39397;53.204;5.778;2024-03-07T02:06:44;35.47;;;21.08;;
53519;SDS011;39397;53.204;5.778;2024-03-07T02:09:10;31.08;;;21.40;;
53519;SDS011;39397;53.204;5.778;2024-03-07T02:11:36;32.85;;;21.83;;
53519;SDS011;39397;53.204;5.778;2024-03-07T02:14:01;33.38;;;21.15;;
53519;SDS011;39397;53.204;5.778;2024-03-07T02:16:27;32.15;;;22.00;;
53519;SDS011;39397;53.204;5.778;2024-03-07T02:18:56;30.63;;;22.30;;
53519;SDS011;39397;53.204;5.778;2024-03-07T02:21:27;30.95;;;21.85;;
53519;SDS011;39397;53.204;5.778;2024-03-07T02:23:53;32.22;;;21.25;;
53519;SDS011;39397;53.204;5.778;2024-03-07T02:26:19;30.60;;;20.50;;
53519;SDS011;39397;53.204;5.778;2024-03-07T02:28:48;30.42;;;20.33;;
53519;SDS011;39397;53.204;5.778;2024-03-07T02:31:14;29.83;;;20.27;;
53519;SDS011;39397;53.204;5.778;2024-03-07T02:33:40;31.35;;;20.80;;
53519;SDS011;39397;53.204;5.778;2024-03-07T02:36:06;33.50;;;20.27;;
53519;SDS011;39397;53.204;5.778;2024-03-07T02:38:35;33.00;;;20.92;;
53519;SDS011;39397;53.204;5.778;2024-03-07T02:41:00;28.65;;;19.92;;
53519;SDS011;39397;53.204;5.778;2024-03-07T02:43:29;31.58;;;19.88;;
53519;SDS011;39397;53.204;5.778;2024-03-07T02:45:54;32.15;;;20.15;;
53519;SDS011;39397;53.204;5.778;2024-03-07T02:48:20;29.45;;;19.75;;
53519;SDS011;39397;53.204;5.778;2024-03-07T02:50:46;31.75;;;19.55;;
53519;SDS011;39397;53.204;5.778;2024-03-07T02:53:12;29.60;;;19.75;;
53519;SDS011;39397;53.204;5.778;2024-03-07T02:55:38;30.40;;;20.00;;
53519;SDS011;39397;53.204;5.778;2024-03-07T02:58:04;32.55;;;20.15;;
53519;SDS011;39397;53.204;5.778;2024-03-07T03:00:32;30.13;;;20.67;;
53519;SDS011;39397;53.204;5.778;2024-03-07T03:02:58;28.63;;;20.35;;
53519;SDS011;39397;53.204;5.778;2024-03-07T03:05:26;30.10;;;20.75;;
53519;SDS011;39397;53.204;5.778;2024-03-07T03:07:54;29.98;;;20.05;;
53519;SDS011;39397;53.204;5.778;2024-03-07T03:10:21;29.85;;;20.80;;
53519;SDS011;39397;53.204;5.778;2024-03-07T03:12:52;31.13;;;20.38;;
53519;SDS011;39397;53.204;5.778;2024-03-07T03:15:19;31.05;;;20.27;;
53519;SDS011;39397;53.204;5.778;2024-03-07T03:17:46;33.80;;;21.50;;
53519;SDS011;39397;53.204;5.778;2024-03-07T03:20:12;28.92;;;19.52;;
53519;SDS011;39397;53.204;5.778;2024-03-07T03:22:51;36.22;;;20.83;;
53519;SDS011;39397;53.204;5.778;2024-03-07T03:25:18;32.33;;;20.70;;
53519;SDS011;39397;53.204;5.778;2024-03-07T03:27:45;31.30;;;20.73;;
53519;SDS011;39397;53.204;5.778;2024-03-07T03:30:17;30.80;;;20.90;;
53519;SDS011;39397;53.204;5.778;2024-03-07T03:32:47;30.40;;;19.40;;
53519;SDS011;39397;53.204;5.778;2024-03-07T03:35:13;29.73;;;19.05;;
53519;SDS011;39397;53.204;5.778;2024-03-07T03:37:44;31.02;;;20.73;;
53519;SDS011;39397;53.204;5.778;2024-03-07T03:40:10;34.20;;;20.52;;
53519;SDS011;39397;53.204;5.778;2024-03-07T03:42:41;33.00;;;20.17;;
53519;SDS011;39397;53.204;5.778;2024-03-07T03:45:08;33.75;;;20.00;;
53519;SDS011;39397;53.204;5.778;2024-03-07T03:47:39;36.97;;;20.85;;
53519;SDS011;39397;53.204;5.778;2024-03-07T03:50:06;32.35;;;21.55;;
53519;SDS011;39397;53.204;5.778;2024-03-07T03:52:37;31.08;;;20.42;;
53519;SDS011;39397;53.204;5.778;2024-03-07T03:55:05;31.40;;;20.85;;
53519;SDS011;39397;53.204;5.778;2024-03-07T03:57:34;34.58;;;22.38;;
53519;SDS011;39397;53.204;5.778;2024-03-07T04:00:02;38.38;;;22.92;;
53519;SDS011;39397;53.204;5.778;2024-03-07T04:02:35;36.58;;;21.85;;
53519;SDS011;39397;53.204;5.778;2024-03-07T04:05:03;33.60;;;21.08;;
53519;SDS011;39397;53.204;5.778;2024-03-07T04:07:29;31.90;;;20.33;;
53519;SDS011;39397;53.204;5.778;2024-03-07T04:09:56;30.80;;;19.90;;
53519;SDS011;39397;53.204;5.778;2024-03-07T04:12:27;31.70;;;21.20;;
53519;SDS011;39397;53.204;5.778;2024-03-07T04:14:53;32.58;;;20.35;;
53519;SDS011;39397;53.204;5.778;2024-03-07T04:17:22;31.42;;;20.92;;
53519;SDS011;39397;53.204;5.778;2024-03-07T04:19:48;34.58;;;21.75;;
53519;SDS011;39397;53.204;5.778;2024-03-07T04:22:14;34.10;;;20.85;;
53519;SDS011;39397;53.204;5.778;2024-03-07T04:24:41;31.63;;;20.20;;
53519;SDS011;39397;53.204;5.778;2024-03-07T04:27:12;30.00;;;19.23;;
53519;SDS011;39397;53.204;5.778;2024-03-07T04:29:41;33.72;;;20.58;;
53519;SDS011;39397;53.204;5.778;2024-03-07T04:32:06;31.05;;;20.27;;
53519;SDS011;39397;53.204;5.778;2024-03-07T04:34:34;28.70;;;19.20;;
53519;SDS011;39397;53.204;5.778;2024-03-07T04:37:01;30.02;;;19.63;;
53519;SDS011;39397;53.204;5.778;2024-03-07T04:39:27;33.80;;;20.73;;
53519;SDS011;39397;53.204;5.778;2024-03-07T04:42:04;32.90;;;20.95;;
53519;SDS011;39397;53.204;5.778;2024-03-07T04:44:36;30.10;;;19.38;;
53519;SDS011;39397;53.204;5.778;2024-03-07T04:47:03;31.67;;;19.80;;
53519;SDS011;39397;53.204;5.778;2024-03-07T04:49:29;29.50;;;19.48;;
53519;SDS011;39397;53.204;5.778;2024-03-07T04:51:57;28.27;;;18.48;;
53519;SDS011;39397;53.204;5.778;2024-03-07T04:54:24;31.13;;;20.13;;
53519;SDS011;39397;53.204;5.778;2024-03-07T04:56:51;33.42;;;21.23;;
53519;SDS011;39397;53.204;5.778;2024-03-07T04:59:18;31.30;;;19.65;;
53519;SDS011;39397;53.204;5.778;2024-03-07T05:01:44;35.55;;;20.23;;
53519;SDS011;39397;53.204;5.778;2024-03-07T05:04:15;27.38;;;19.08;;
53519;SDS011;39397;53.204;5.778;2024-03-07T05:06:41;29.23;;;19.20;;
53519;SDS011;39397;53.204;5.778;2024-03-07T05:09:11;30.83;;;19.48;;
53519;SDS011;39397;53.204;5.778;2024-03-07T05:11:48;32.25;;;20.35;;
53519;SDS011;39397;53.204;5.778;2024-03-07T05:14:17;29.50;;;18.88;;
53519;SDS011;39397;53.204;5.778;2024-03-07T05:16:43;30.90;;;19.08;;
53519;SDS011;39397;53.204;5.778;2024-03-07T05:19:09;30.80;;;19.92;;
53519;SDS011;39397;53.204;5.778;2024-03-07T05:21:34;30.05;;;18.25;;
53519;SDS011;39397;53.204;5.778;2024-03-07T05:24:07;31.38;;;19.77;;
53519;SDS011;39397;53.204;5.778;2024-03-07T05:26:36;30.50;;;19.30;;
53519;SDS011;39397;53.204;5.778;2024-03-07T05:29:10;27.95;;;18.25;;
53519;SDS011;39397;53.204;5.778;2024-03-07T05:31:36;28.65;;;18.65;;
53519;SDS011;39397;53.204;5.778;2024-03-07T05:34:03;30.00;;;19.30;;
53519;SDS011;39397;53.204;5.778;2024-03-07T05:36:36;32.55;;;20.55;;
53519;SDS011;39397;53.204;5.778;2024-03-07T05:39:09;31.63;;;19.67;;
53519;SDS011;39397;53.204;5.778;2024-03-07T05:41:42;32.85;;;20.02;;
53519;SDS011;39397;53.204;5.778;2024-03-07T05:44:13;32.58;;;19.88;;
53519;SDS011;39397;53.204;5.778;2024-03-07T05:46:40;32.63;;;21.80;;
53519;SDS011;39397;53.204;5.778;2024-03-07T05:49:10;30.08;;;20.08;;
53519;SDS011;39397;53.204;5.778;2024-03-07T05:51:35;34.08;;;21.08;;
53519;SDS011;39397;53.204;5.778;2024-03-07T05:54:02;34.70;;;21.75;;
53519;SDS011;39397;53.204;5.778;2024-03-07T05:56:35;32.28;;;21.52;;
53519;SDS011;39397;53.204;5.778;2024-03-07T05:59:03;34.38;;;22.13;;
53519;SDS011;39397;53.204;5.778;2024-03-07T06:01:30;38.00;;;21.27;;
53519;SDS011;39397;53.204;5.778;2024-03-07T06:04:00;36.65;;;22.95;;
53519;SDS011;39397;53.204;5.778;2024-03-07T06:06:26;37.47;;;22.83;;
53519;SDS011;39397;53.204;5.778;2024-03-07T06:08:52;36.58;;;22.58;;
53519;SDS011;39397;53.204;5.778;2024-03-07T06:11:18;33.35;;;21.98;;
53519;SDS011;39397;53.204;5.778;2024-03-07T06:13:46;31.33;;;21.05;;
53519;SDS011;39397;53.204;5.778;2024-03-07T06:16:13;32.83;;;21.65;;
53519;SDS011;39397;53.204;5.778;2024-03-07T06:18:42;36.90;;;22.08;;
53519;SDS011;39397;53.204;5.778;2024-03-07T06:21:10;35.55;;;21.10;;
53519;SDS011;39397;53.204;5.778;2024-03-07T06:23:35;34.03;;;22.02;;
53519;SDS011;39397;53.204;5.778;2024-03-07T06:26:01;37.33;;;22.45;;
53519;SDS011;39397;53.204;5.778;2024-03-07T06:28:37;33.85;;;22.73;;
53519;SDS011;39397;53.204;5.778;2024-03-07T06:31:06;34.90;;;22.73;;
53519;SDS011;39397;53.204;5.778;2024-03-07T06:33:36;35.00;;;22.38;;
53519;SDS011;39397;53.204;5.778;2024-03-07T06:36:02;32.58;;;22.58;;
53519;SDS011;39397;53.204;5.778;2024-03-07T06:38:28;36.05;;;24.05;;
53519;SDS011;39397;53.204;5.778;2024-03-07T06:40:54;37.58;;;24.05;;
53519;SDS011;39397;53.204;5.778;2024-03-07T06:43:19;37.20;;;23.38;;
53519;SDS011;39397;53.204;5.778;2024-03-07T06:45:45;33.45;;;22.67;;
53519;SDS011;39397;53.204;5.778;2024-03-07T06:48:11;35.65;;;23.40;;
53519;SDS011;39397;53.204;5.778;2024-03-07T06:50:39;36.35;;;22.98;;
53519;SDS011;39397;53.204;5.778;2024-03-07T06:53:05;38.80;;;23.48;;
53519;SDS011;39397;53.204;5.778;2024-03-07T06:55:32;35.28;;;23.50;;
53519;SDS011;39397;53.204;5.778;2024-03-07T06:57:59;37.42;;;24.52;;
53519;SDS011;39397;53.204;5.778;2024-03-07T07:00:26;34.67;;;23.98;;
53519;SDS011;39397;53.204;5.778;2024-03-07T07:02:51;33.92;;;23.10;;
53519;SDS011;39397;53.204;5.778;2024-03-07T07:05:20;34.17;;;22.92;;
53519;SDS011;39397;53.204;5.778;2024-03-07T07:07:49;35.47;;;23.92;;
53519;SDS011;39397;53.204;5.778;2024-03-07T07:10:18;35.75;;;24.85;;
53519;SDS011;39397;53.204;5.778;2024-03-07T07:12:47;33.60;;;23.45;;
53519;SDS011;39397;53.204;5.778;2024-03-07T07:15:14;36.05;;;24.10;;
53519;SDS011;39397;53.204;5.778;2024-03-07T07:17:41;38.40;;;24.67;;
53519;SDS011;39397;53.204;5.778;2024-03-07T07:20:10;39.97;;;26.88;;
53519;SDS011;39397;53.204;5.778;2024-03-07T07:22:43;33.83;;;22.38;;
53519;SDS011;39397;53.204;5.778;2024-03-07T07:25:17;38.25;;;25.60;;
53519;SDS011;39397;53.204;5.778;2024-03-07T07:27:49;35.75;;;25.23;;
53519;SDS011;39397;53.204;5.778;2024-03-07T07:30:17;35.42;;;24.92;;
53519;SDS011;39397;53.204;5.778;2024-03-07T07:32:44;37.60;;;24.90;;
53519;SDS011;39397;53.204;5.778;2024-03-07T07:35:10;36.60;;;25.50;;
53519;SDS011;39397;53.204;5.778;2024-03-07T07:37:40;35.65;;;25.33;;
53519;SDS011;39397;53.204;5.778;2024-03-07T07:40:12;37.97;;;24.15;;
53519;SDS011;39397;53.204;5.778;2024-03-07T07:42:46;36.00;;;25.45;;
53519;SDS011;39397;53.204;5.778;2024-03-07T07:45:14;34.38;;;24.02;;
53519;SDS011;39397;53.204;5.778;2024-03-07T07:47:44;36.03;;;25.35;;
53519;SDS011;39397;53.204;5.778;2024-03-07T07:50:17;36.22;;;24.15;;
53519;SDS011;39397;53.204;5.778;2024-03-07T07:55:36;32.80;;;23.95;;
53519;SDS011;39397;53.204;5.778;2024-03-07T07:58:02;35.03;;;24.67;;
53519;SDS011;39397;53.204;5.778;2024-03-07T08:00:29;35.83;;;25.85;;
53519;SDS011;39397;53.204;5.778;2024-03-07T08:03:01;35.28;;;26.08;;
53519;SDS011;39397;53.204;5.778;2024-03-07T08:05:32;36.15;;;25.45;;
53519;SDS011;39397;53.204;5.778;2024-03-07T08:08:07;36.50;;;24.65;;
53519;SDS011;39397;53.204;5.778;2024-03-07T08:10:41;35.83;;;25.40;;
53519;SDS011;39397;53.204;5.778;2024-03-07T08:13:07;34.65;;;26.45;;
53519;SDS011;39397;53.204;5.778;2024-03-07T08:15:36;35.67;;;25.20;;
53519;SDS011;39397;53.204;5.778;2024-03-07T08:18:04;38.22;;;25.02;;
53519;SDS011;39397;53.204;5.778;2024-03-07T08:23:08;34.33;;;24.85;;
53519;SDS011;39397;53.204;5.778;2024-03-07T08:25:34;34.17;;;24.52;;
53519;SDS011;39397;53.204;5.778;2024-03-07T08:28:00;35.33;;;25.73;;
53519;SDS011;39397;53.204;5.778;2024-03-07T08:30:26;36.17;;;25.30;;
53519;SDS011;39397;53.204;5.778;2024-03-07T08:32:58;36.92;;;26.02;;
53519;SDS011;39397;53.204;5.778;2024-03-07T08:37:55;33.65;;;23.33;;
53519;SDS011;39397;53.204;5.778;2024-03-07T08:40:23;38.30;;;25.10;;
53519;SDS011;39397;53.204;5.778;2024-03-07T08:42:56;36.15;;;24.30;;
53519;SDS011;39397;53.204;5.778;2024-03-07T08:45:25;34.47;;;24.85;;
53519;SDS011;39397;53.204;5.778;2024-03-07T08:47:52;37.80;;;26.42;;
53519;SDS011;39397;53.204;5.778;2024-03-07T08:50:24;33.10;;;24.60;;
53519;SDS011;39397;53.204;5.778;2024-03-07T08:52:51;38.00;;;26.80;;
53519;SDS011;39397;53.204;5.778;2024-03-07T08:55:22;36.15;;;26.60;;
53519;SDS011;39397;53.204;5.778;2024-03-07T08:57:50;38.63;;;27.95;;
53519;SDS011;39397;53.204;5.778;2024-03-07T09:00:16;38.78;;;26.95;;
53519;SDS011;39397;53.204;5.778;2024-03-07T09:02:50;38.53;;;27.20;;
53519;SDS011;39397;53.204;5.778;2024-03-07T09:05:20;36.00;;;25.17;;
53519;SDS011;39397;53.204;5.778;2024-03-07T09:07:52;39.05;;;27.55;;
53519;SDS011;39397;53.204;5.778;2024-03-07T09:10:19;37.33;;;26.25;;
53519;SDS011;39397;53.204;5.778;2024-03-07T09:12:46;38.25;;;27.00;;
53519;SDS011;39397;53.204;5.778;2024-03-07T09:15:19;39.25;;;27.75;;
53519;SDS011;39397;53.204;5.778;2024-03-07T09:17:46;37.60;;;26.95;;
53519;SDS011;39397;53.204;5.778;2024-03-07T09:20:12;36.30;;;26.10;;
53519;SDS011;39397;53.204;5.778;2024-03-07T09:22:44;38.10;;;27.15;;
53519;SDS011;39397;53.204;5.778;2024-03-07T09:25:15;38.58;;;28.08;;
53519;SDS011;39397;53.204;5.778;2024-03-07T09:27:41;41.80;;;27.50;;
53519;SDS011;39397;53.204;5.778;2024-03-07T09:30:08;42.88;;;28.50;;
53519;SDS011;39397;53.204;5.778;2024-03-07T09:32:38;49.50;;;32.35;;
53519;SDS011;39397;53.204;5.778;2024-03-07T09:35:08;53.63;;;31.25;;
53519;SDS011;39397;53.204;5.778;2024-03-07T09:37:39;55.25;;;34.25;;
53519;SDS011;39397;53.204;5.778;2024-03-07T09:40:08;55.55;;;35.17;;
53519;SDS011;39397;53.204;5.778;2024-03-07T09:42:47;55.83;;;32.97;;
53519;SDS011;39397;53.204;5.778;2024-03-07T09:45:15;51.13;;;31.63;;
53519;SDS011;39397;53.204;5.778;2024-03-07T09:47:46;51.28;;;31.52;;
53519;SDS011;39397;53.204;5.778;2024-03-07T09:50:14;47.08;;;28.75;;
53519;SDS011;39397;53.204;5.778;2024-03-07T09:52:44;41.72;;;28.70;;
53519;SDS011;39397;53.204;5.778;2024-03-07T09:55:12;39.63;;;25.88;;
53519;SDS011;39397;53.204;5.778;2024-03-07T09:57:38;40.45;;;28.25;;
53519;SDS011;39397;53.204;5.778;2024-03-07T10:00:05;34.25;;;24.10;;
53519;SDS011;39397;53.204;5.778;2024-03-07T10:02:33;33.90;;;24.42;;
53519;SDS011;39397;53.204;5.778;2024-03-07T10:05:02;29.83;;;22.42;;
53519;SDS011;39397;53.204;5.778;2024-03-07T10:07:32;30.25;;;22.38;;
53519;SDS011;39397;53.204;5.778;2024-03-07T10:09:59;32.63;;;22.33;;
53519;SDS011;39397;53.204;5.778;2024-03-07T10:12:31;29.73;;;21.85;;
53519;SDS011;39397;53.204;5.778;2024-03-07T10:15:10;30.58;;;22.05;;
53519;SDS011;39397;53.204;5.778;2024-03-07T10:17:39;26.08;;;19.75;;
53519;SDS011;39397;53.204;5.778;2024-03-07T10:20:08;27.15;;;21.08;;
53519;SDS011;39397;53.204;5.778;2024-03-07T10:22:42;28.58;;;20.15;;
53519;SDS011;39397;53.204;5.778;2024-03-07T10:25:08;30.88;;;20.85;;
53519;SDS011;39397;53.204;5.778;2024-03-07T10:27:38;31.35;;;22.20;;
53519;SDS011;39397;53.204;5.778;2024-03-07T10:30:04;30.50;;;21.65;;
53519;SDS011;39397;53.204;5.778;2024-03-07T10:32:33;35.25;;;23.83;;
53519;SDS011;39397;53.204;5.778;2024-03-07T10:34:59;33.28;;;22.80;;
53519;SDS011;39397;53.204;5.778;2024-03-07T10:37:25;35.50;;;22.88;;
53519;SDS011;39397;53.204;5.778;2024-03-07T10:39:53;36.03;;;22.98;;
53519;SDS011;39397;53.204;5.778;2024-03-07T10:42:19;34.00;;;23.33;;
53519;SDS011;39397;53.204;5.778;2024-03-07T10:44:50;39.35;;;25.65;;
53519;SDS011;39397;53.204;5.778;2024-03-07T10:47:19;35.33;;;23.60;;
53519;SDS011;39397;53.204;5.778;2024-03-07T10:52:34;36.83;;;24.45;;
53519;SDS011;39397;53.204;5.778;2024-03-07T10:57:54;37.08;;;24.00;;
53519;SDS011;39397;53.204;5.778;2024-03-07T11:00:27;34.05;;;22.67;;
53519;SDS011;39397;53.204;5.778;2024-03-07T11:03:00;29.23;;;20.85;;
53519;SDS011;39397;53.204;5.778;2024-03-07T11:05:32;31.70;;;20.45;;
53519;SDS011;39397;53.204;5.778;2024-03-07T11:07:58;31.45;;;20.77;;
53519;SDS011;39397;53.204;5.778;2024-03-07T11:10:30;28.52;;;19.90;;
53519;SDS011;39397;53.204;5.778;2024-03-07T11:12:56;29.00;;;19.30;;
53519;SDS011;39397;53.204;5.778;2024-03-07T11:15:24;28.70;;;20.27;;
53519;SDS011;39397;53.204;5.778;2024-03-07T11:17:52;30.00;;;19.30;;
53519;SDS011;39397;53.204;5.778;2024-03-07T11:20:23;29.40;;;19.42;;
53519;SDS011;39397;53.204;5.778;2024-03-07T11:22:50;30.33;;;19.85;;
53519;SDS011;39397;53.204;5.778;2024-03-07T11:25:19;26.48;;;19.27;;
53519;SDS011;39397;53.204;5.778;2024-03-07T11:27:59;31.42;;;20.23;;
53519;SDS011;39397;53.204;5.778;2024-03-07T11:30:26;31.30;;;20.10;;
53519;SDS011;39397;53.204;5.778;2024-03-07T11:32:52;34.35;;;20.73;;
53519;SDS011;39397;53.204;5.778;2024-03-07T11:35:19;30.27;;;19.33;;
53519;SDS011;39397;53.204;5.778;2024-03-07T11:37:57;29.00;;;19.73;;
53519;SDS011;39397;53.204;5.778;2024-03-07T11:42:53;27.08;;;19.63;;
53519;SDS011;39397;53.204;5.778;2024-03-07T11:45:25;27.98;;;18.73;;
53519;SDS011;39397;53.204;5.778;2024-03-07T11:47:52;27.52;;;18.23;;
53519;SDS011;39397;53.204;5.778;2024-03-07T11:50:31;27.48;;;18.15;;
53519;SDS011;39397;53.204;5.778;2024-03-07T11:53:00;26.55;;;18.35;;
53519;SDS011;39397;53.204;5.778;2024-03-07T11:55:27;26.83;;;17.77;;
53519;SDS011;39397;53.204;5.778;2024-03-07T11:58:13;25.30;;;17.73;;
53519;SDS011;39397;53.204;5.778;2024-03-07T12:00:44;23.00;;;16.38;;
53519;SDS011;39397;53.204;5.778;2024-03-07T12:03:14;23.13;;;17.17;;
53519;SDS011;39397;53.204;5.778;2024-03-07T12:05:47;25.63;;;17.23;;
53519;SDS011;39397;53.204;5.778;2024-03-07T12:08:13;22.45;;;16.83;;
53519;SDS011;39397;53.204;5.778;2024-03-07T12:10:40;24.08;;;17.02;;
53519;SDS011;39397;53.204;5.778;2024-03-07T12:13:15;21.85;;;15.32;;
53519;SDS011;39397;53.204;5.778;2024-03-07T12:15:41;21.52;;;15.63;;
53519;SDS011;39397;53.204;5.778;2024-03-07T12:18:08;22.42;;;16.10;;
53519;SDS011;39397;53.204;5.778;2024-03-07T12:20:39;20.42;;;14.77;;
53519;SDS011;39397;53.204;5.778;2024-03-07T12:23:09;23.00;;;16.50;;
53519;SDS011;39397;53.204;5.778;2024-03-07T12:25:37;21.02;;;16.55;;
53519;SDS011;39397;53.204;5.778;2024-03-07T12:28:11;20.55;;;14.30;;
53519;SDS011;39397;53.204;5.778;2024-03-07T12:30:48;22.52;;;14.60;;
53519;SDS011;39397;53.204;5.778;2024-03-07T12:33:18;21.67;;;15.45;;
53519;SDS011;39397;53.204;5.778;2024-03-07T12:35:48;20.83;;;15.05;;
53519;SDS011;39397;53.204;5.778;2024-03-07T12:38:16;23.55;;;16.45;;
53519;SDS011;39397;53.204;5.778;2024-03-07T12:40:43;21.85;;;15.50;;
53519;SDS011;39397;53.204;5.778;2024-03-07T12:45:47;21.10;;;15.18;;
53519;SDS011;39397;53.204;5.778;2024-03-07T12:48:14;22.35;;;15.23;;
53519;SDS011;39397;53.204;5.778;2024-03-07T12:50:41;22.83;;;15.40;;
53519;SDS011;39397;53.204;5.778;2024-03-07T12:53:10;19.50;;;15.45;;
53519;SDS011;39397;53.204;5.778;2024-03-07T12:55:40;19.67;;;15.02;;
53519;SDS011;39397;53.204;5.778;2024-03-07T12:58:09;23.00;;;15.48;;
53519;SDS011;39397;53.204;5.778;2024-03-07T13:00:38;21.30;;;15.98;;
53519;SDS011;39397;53.204;5.778;2024-03-07T13:03:06;22.48;;;15.95;;
53519;SDS011;39397;53.204;5.778;2024-03-07T13:05:34;22.13;;;16.42;;
53519;SDS011;39397;53.204;5.778;2024-03-07T13:08:02;24.60;;;16.33;;
53519;SDS011;39397;53.204;5.778;2024-03-07T13:10:30;22.95;;;16.23;;
53519;SDS011;39397;53.204;5.778;2024-03-07T13:12:56;26.88;;;17.90;;
53519;SDS011;39397;53.204;5.778;2024-03-07T13:15:24;22.83;;;16.27;;
53519;SDS011;39397;53.204;5.778;2024-03-07T13:17:52;23.92;;;16.98;;
53519;SDS011;39397;53.204;5.778;2024-03-07T13:20:27;25.58;;;16.80;;
53519;SDS011;39397;53.204;5.778;2024-03-07T13:22:56;24.63;;;17.00;;
53519;SDS011;39397;53.204;5.778;2024-03-07T13:25:24;21.73;;;16.83;;
53519;SDS011;39397;53.204;5.778;2024-03-07T13:30:36;22.23;;;15.95;;
53519;SDS011;39397;53.204;5.778;2024-03-07T13:33:02;24.58;;;16.67;;
53519;SDS011;39397;53.204;5.778;2024-03-07T13:35:28;24.63;;;17.05;;
53519;SDS011;39397;53.204;5.778;2024-03-07T13:37:55;24.02;;;17.33;;
53519;SDS011;39397;53.204;5.778;2024-03-07T13:40:25;23.83;;;15.27;;
53519;SDS011;39397;53.204;5.778;2024-03-07T13:42:53;21.27;;;14.80;;
53519;SDS011;39397;53.204;5.778;2024-03-07T13:47:53;22.05;;;15.20;;
53519;SDS011;39397;53.204;5.778;2024-03-07T13:50:20;23.73;;;15.52;;
53519;SDS011;39397;53.204;5.778;2024-03-07T13:52:51;21.00;;;14.30;;
53519;SDS011;39397;53.204;5.778;2024-03-07T13:58:52;24.65;;;14.65;;
53519;SDS011;39397;53.204;5.778;2024-03-07T14:01:33;22.20;;;15.07;;
53519;SDS011;39397;53.204;5.778;2024-03-07T14:12:55;17.45;;;13.23;;
53519;SDS011;39397;53.204;5.778;2024-03-07T14:16:12;21.50;;;15.00;;
53519;SDS011;39397;53.204;5.778;2024-03-07T14:25:01;20.88;;;13.75;;
53519;SDS011;39397;53.204;5.778;2024-03-07T14:27:49;22.45;;;15.00;;
53519;SDS011;39397;53.204;5.778;2024-03-07T14:30:52;22.13;;;14.82;;
53519;SDS011;39397;53.204;5.778;2024-03-07T14:33:57;21.92;;;14.00;;
53519;SDS011;39397;53.204;5.778;2024-03-07T14:36:34;19.85;;;13.60;;
53519;SDS011;39397;53.204;5.778;2024-03-07T14:39:06;20.27;;;13.10;;
53519;SDS011;39397;53.204;5.778;2024-03-07T14:44:24;22.10;;;14.75;;
53519;SDS011;39397;53.204;5.778;2024-03-07T14:47:02;20.25;;;14.65;;
53519;SDS011;39397;53.204;5.778;2024-03-07T14:49:32;21.23;;;13.20;;
53519;SDS011;39397;53.204;5.778;2024-03-07T14:51:59;20.30;;;13.38;;
53519;SDS011;39397;53.204;5.778;2024-03-07T14:54:26;19.58;;;13.52;;
53519;SDS011;39397;53.204;5.778;2024-03-07T14:56:52;19.60;;;13.95;;
53519;SDS011;39397;53.204;5.778;2024-03-07T14:59:18;20.60;;;14.05;;
53519;SDS011;39397;53.204;5.778;2024-03-07T15:01:44;19.95;;;13.82;;
53519;SDS011;39397;53.204;5.778;2024-03-07T15:04:10;19.65;;;13.23;;
53519;SDS011;39397;53.204;5.778;2024-03-07T15:06:39;21.48;;;14.95;;
53519;SDS011;39397;53.204;5.778;2024-03-07T15:09:05;19.42;;;13.18;;
53519;SDS011;39397;53.204;5.778;2024-03-07T15:11:37;20.50;;;14.23;;
53519;SDS011;39397;53.204;5.778;2024-03-07T15:14:05;22.30;;;13.25;;
53519;SDS011;39397;53.204;5.778;2024-03-07T15:16:34;17.20;;;12.65;;